ANZ1203 NZWN-NZQN
Flight info
| Callsign | ANZ1203 |
|---|---|
| Flight time | 1h 4m |
| Altitude | 38000 |
| Route | SABDA Y622 MESIX H159 CH Y266 ELRUV |
| Aircraft | A21N/M-SDE2E3FGHIRWXY/LB1 |
Departure
| Time | 2026-04-28 20:07 |
|---|---|
| Airport | Wellington International Airport (NZWN) |
Arrival
| Time | 2026-04-28 21:11 |
|---|---|
| Airport | Queenstown Airport (NZQN) |
| Time | Latitude | Longitude | Altitude | Speed | Heading |
|---|---|---|---|---|---|
| 2026-04-28 19:37 | -41.32752 | 174.81020 | 32 ft | 0 kts | 186° |
| 2026-04-28 19:44 | -41.32751 | 174.81020 | 32 ft | 0 kts | 186° |
| 2026-04-28 19:47 | -41.32750 | 174.81020 | 32 ft | 0 kts | 186° |
| 2026-04-28 19:52 | -41.32749 | 174.81020 | 32 ft | 0 kts | 186° |
| 2026-04-28 19:55 | -41.32750 | 174.81020 | 32 ft | 4 kts | 189° |
| 2026-04-28 19:56 | -41.32734 | 174.81026 | 32 ft | 6 kts | 201° |
| 2026-04-28 19:56 | -41.32712 | 174.81043 | 30 ft | 6 kts | 230° |
| 2026-04-28 19:56 | -41.32704 | 174.81070 | 28 ft | 5 kts | 272° |
| 2026-04-28 19:56 | -41.32704 | 174.81077 | 28 ft | 16 kts | 272° |
| 2026-04-28 19:58 | -41.32704 | 174.81078 | 28 ft | 0 kts | 272° |
| 2026-04-28 20:00 | -41.32704 | 174.81079 | 32 ft | 0 kts | 272° |
| 2026-04-28 20:02 | -41.32704 | 174.81069 | 32 ft | 3 kts | 272° |
| 2026-04-28 20:02 | -41.32702 | 174.81026 | 32 ft | 7 kts | 272° |
| 2026-04-28 20:02 | -41.32701 | 174.80992 | 32 ft | 1 kts | 272° |
| 2026-04-28 20:03 | -41.32700 | 174.80971 | 32 ft | 4 kts | 272° |
| 2026-04-28 20:03 | -41.32703 | 174.80926 | 32 ft | 6 kts | 254° |
| 2026-04-28 20:03 | -41.32713 | 174.80883 | 32 ft | 8 kts | 258° |
| 2026-04-28 20:03 | -41.32747 | 174.80816 | 32 ft | 11 kts | 192° |
| 2026-04-28 20:04 | -41.32807 | 174.80810 | 32 ft | 13 kts | 183° |
| 2026-04-28 20:04 | -41.32861 | 174.80806 | 32 ft | 18 kts | 183° |
| 2026-04-28 20:04 | -41.32996 | 174.80797 | 32 ft | 20 kts | 184° |
| 2026-04-28 20:05 | -41.33145 | 174.80787 | 32 ft | 22 kts | 183° |
| 2026-04-28 20:05 | -41.33305 | 174.80778 | 32 ft | 24 kts | 182° |
| 2026-04-28 20:05 | -41.33473 | 174.80769 | 32 ft | 20 kts | 182° |
| 2026-04-28 20:05 | -41.33563 | 174.80723 | 32 ft | 15 kts | 236° |
| 2026-04-28 20:06 | -41.33573 | 174.80632 | 32 ft | 9 kts | 321° |
| 2026-04-28 20:06 | -41.33537 | 174.80625 | 32 ft | 0 kts | 3° |
| 2026-04-28 20:06 | -41.33487 | 174.80629 | 32 ft | 35 kts | 3° |
| 2026-04-28 20:06 | -41.32940 | 174.80673 | 32 ft | 118 kts | 3° |
| 2026-04-28 20:07 | -41.31987 | 174.80747 | 490 ft | 139 kts | 4° |
| 2026-04-28 20:07 | -41.31327 | 174.80784 | 1059 ft | 144 kts | 3° |
| 2026-04-28 20:07 | -41.29953 | 174.80874 | 2190 ft | 155 kts | 0° |
| 2026-04-28 20:07 | -41.28824 | 174.80921 | 2939 ft | 168 kts | 357° |
| 2026-04-28 20:08 | -41.27612 | 174.80941 | 3682 ft | 181 kts | 353° |
| 2026-04-28 20:08 | -41.26317 | 174.80744 | 4286 ft | 194 kts | 329° |
| 2026-04-28 20:08 | -41.25377 | 174.79448 | 4900 ft | 208 kts | 292° |
| 2026-04-28 20:08 | -41.25237 | 174.77413 | 5280 ft | 243 kts | 261° |
| 2026-04-28 20:09 | -41.25901 | 174.75321 | 6269 ft | 249 kts | 243° |
| 2026-04-28 20:09 | -41.27051 | 174.73542 | 7244 ft | 260 kts | 227° |
| 2026-04-28 20:09 | -41.28660 | 174.72315 | 8156 ft | 275 kts | 208° |
| 2026-04-28 20:09 | -41.30475 | 174.71399 | 9075 ft | 282 kts | 206° |
| 2026-04-28 20:10 | -41.32334 | 174.70508 | 10064 ft | 286 kts | 204° |
| 2026-04-28 20:10 | -41.34272 | 174.69575 | 10642 ft | 306 kts | 205° |
| 2026-04-28 20:10 | -41.36313 | 174.68586 | 11192 ft | 322 kts | 204° |
| 2026-04-28 20:10 | -41.38438 | 174.67556 | 12023 ft | 328 kts | 204° |
| 2026-04-28 20:11 | -41.40605 | 174.66511 | 12943 ft | 332 kts | 204° |
| 2026-04-28 20:11 | -41.42790 | 174.65451 | 13853 ft | 336 kts | 204° |
| 2026-04-28 20:11 | -41.45002 | 174.64376 | 14675 ft | 341 kts | 204° |
| 2026-04-28 20:11 | -41.47242 | 174.63285 | 15434 ft | 346 kts | 204° |
| 2026-04-28 20:12 | -41.49522 | 174.62177 | 16148 ft | 352 kts | 203° |
| 2026-04-28 20:12 | -41.51839 | 174.61054 | 16885 ft | 357 kts | 201° |
| 2026-04-28 20:12 | -41.54200 | 174.59905 | 17610 ft | 363 kts | 201° |
| 2026-04-28 20:12 | -41.56592 | 174.58739 | 18333 ft | 369 kts | 200° |
| 2026-04-28 20:13 | -41.59021 | 174.57555 | 18992 ft | 374 kts | 199° |
| 2026-04-28 20:13 | -41.61449 | 174.56370 | 19659 ft | 377 kts | 199° |
| 2026-04-28 20:13 | -41.63926 | 174.55165 | 20339 ft | 380 kts | 199° |
| 2026-04-28 20:13 | -41.66425 | 174.53947 | 21023 ft | 383 kts | 200° |
| 2026-04-28 20:14 | -41.68940 | 174.52706 | 21695 ft | 386 kts | 200° |
| 2026-04-28 20:14 | -41.71462 | 174.51465 | 22364 ft | 389 kts | 200° |
| 2026-04-28 20:14 | -41.74015 | 174.50210 | 23028 ft | 391 kts | 200° |
| 2026-04-28 20:14 | -41.76583 | 174.48944 | 23680 ft | 394 kts | 200° |
| 2026-04-28 20:15 | -41.79139 | 174.47570 | 24226 ft | 398 kts | 206° |
| 2026-04-28 20:15 | -41.81529 | 174.45675 | 24744 ft | 401 kts | 213° |
| 2026-04-28 20:15 | -41.83849 | 174.43579 | 25243 ft | 404 kts | 214° |
| 2026-04-28 20:15 | -41.86179 | 174.41435 | 25751 ft | 408 kts | 214° |
| 2026-04-28 20:16 | -41.88526 | 174.39276 | 26219 ft | 411 kts | 214° |
| 2026-04-28 20:16 | -41.90895 | 174.37102 | 26695 ft | 414 kts | 213° |
| 2026-04-28 20:16 | -41.93282 | 174.34921 | 27157 ft | 417 kts | 213° |
| 2026-04-28 20:16 | -41.95700 | 174.32723 | 27606 ft | 420 kts | 213° |
| 2026-04-28 20:17 | -41.98127 | 174.30509 | 28042 ft | 423 kts | 213° |
| 2026-04-28 20:17 | -42.00571 | 174.28287 | 28469 ft | 426 kts | 213° |
| 2026-04-28 20:17 | -42.03035 | 174.26044 | 28871 ft | 429 kts | 213° |
| 2026-04-28 20:17 | -42.05484 | 174.23808 | 29277 ft | 432 kts | 213° |
| 2026-04-28 20:18 | -42.07978 | 174.21523 | 29707 ft | 435 kts | 213° |
| 2026-04-28 20:18 | -42.09676 | 174.19969 | 29989 ft | 436 kts | 213° |
| 2026-04-28 20:18 | -42.13013 | 174.16914 | 30487 ft | 440 kts | 213° |
| 2026-04-28 20:18 | -42.15543 | 174.14583 | 30802 ft | 442 kts | 213° |
| 2026-04-28 20:19 | -42.18093 | 174.12235 | 31126 ft | 445 kts | 213° |
| 2026-04-28 20:19 | -42.20656 | 174.09873 | 31448 ft | 447 kts | 213° |
| 2026-04-28 20:19 | -42.23232 | 174.07495 | 31770 ft | 450 kts | 213° |
| 2026-04-28 20:19 | -42.25824 | 174.05101 | 32097 ft | 452 kts | 213° |
| 2026-04-28 20:20 | -42.28427 | 174.02700 | 32406 ft | 454 kts | 213° |
| 2026-04-28 20:20 | -42.31044 | 174.00279 | 32689 ft | 457 kts | 214° |
| 2026-04-28 20:20 | -42.33672 | 173.97847 | 33009 ft | 458 kts | 214° |
| 2026-04-28 20:20 | -42.36294 | 173.95403 | 33385 ft | 457 kts | 214° |
| 2026-04-28 20:21 | -42.38916 | 173.92959 | 33749 ft | 457 kts | 214° |
| 2026-04-28 20:21 | -42.41534 | 173.90516 | 34108 ft | 457 kts | 214° |
| 2026-04-28 20:21 | -42.44118 | 173.88107 | 34416 ft | 456 kts | 214° |
| 2026-04-28 20:21 | -42.46736 | 173.85661 | 34712 ft | 455 kts | 214° |
| 2026-04-28 20:22 | -42.49375 | 173.83194 | 35025 ft | 454 kts | 214° |
| 2026-04-28 20:22 | -42.51943 | 173.80812 | 35323 ft | 453 kts | 214° |
| 2026-04-28 20:22 | -42.54545 | 173.78391 | 35609 ft | 452 kts | 214° |
| 2026-04-28 20:22 | -42.57129 | 173.75974 | 35889 ft | 451 kts | 214° |
| 2026-04-28 20:23 | -42.59709 | 173.73555 | 36175 ft | 450 kts | 214° |
| 2026-04-28 20:23 | -42.62284 | 173.71145 | 36450 ft | 449 kts | 214° |
| 2026-04-28 20:23 | -42.64858 | 173.68728 | 36717 ft | 448 kts | 214° |
| 2026-04-28 20:23 | -42.67423 | 173.66331 | 36963 ft | 448 kts | 214° |
| 2026-04-28 20:24 | -42.69987 | 173.63929 | 37217 ft | 447 kts | 214° |
| 2026-04-28 20:24 | -42.72539 | 173.61520 | 37462 ft | 446 kts | 214° |
| 2026-04-28 20:24 | -42.75092 | 173.59109 | 37711 ft | 446 kts | 214° |
| 2026-04-28 20:24 | -42.77634 | 173.56713 | 37959 ft | 445 kts | 214° |
| 2026-04-28 20:25 | -42.80173 | 173.54316 | 38179 ft | 444 kts | 215° |
| 2026-04-28 20:25 | -42.82712 | 173.51916 | 38288 ft | 444 kts | 215° |
| 2026-04-28 20:25 | -42.85245 | 173.49514 | 38279 ft | 443 kts | 215° |
| 2026-04-28 20:26 | -42.90308 | 173.44715 | 38247 ft | 443 kts | 215° |
| 2026-04-28 20:26 | -42.95377 | 173.39919 | 38240 ft | 443 kts | 215° |
| 2026-04-28 20:27 | -43.00441 | 173.35104 | 38240 ft | 443 kts | 215° |
| 2026-04-28 20:27 | -43.05472 | 173.30319 | 38241 ft | 444 kts | 215° |
| 2026-04-28 20:28 | -43.10464 | 173.25347 | 38232 ft | 444 kts | 223° |
| 2026-04-28 20:28 | -43.14405 | 173.18882 | 38239 ft | 443 kts | 234° |
| 2026-04-28 20:29 | -43.18035 | 173.12048 | 38235 ft | 442 kts | 234° |
| 2026-04-28 20:29 | -43.21686 | 173.05258 | 38236 ft | 442 kts | 234° |
| 2026-04-28 20:30 | -43.25341 | 172.98478 | 38236 ft | 442 kts | 234° |
| 2026-04-28 20:30 | -43.28975 | 172.91733 | 38238 ft | 442 kts | 234° |
| 2026-04-28 20:31 | -43.32624 | 172.84932 | 38236 ft | 442 kts | 234° |
| 2026-04-28 20:31 | -43.36266 | 172.78128 | 38234 ft | 442 kts | 234° |
| 2026-04-28 20:32 | -43.39902 | 172.71301 | 38232 ft | 442 kts | 234° |
| 2026-04-28 20:32 | -43.43542 | 172.64482 | 38232 ft | 442 kts | 234° |
| 2026-04-28 20:33 | -43.47172 | 172.57636 | 38232 ft | 442 kts | 234° |
| 2026-04-28 20:33 | -43.50736 | 172.50752 | 38229 ft | 441 kts | 239° |
| 2026-04-28 20:34 | -43.53849 | 172.43463 | 38236 ft | 441 kts | 240° |
| 2026-04-28 20:34 | -43.56924 | 172.36138 | 38236 ft | 441 kts | 241° |
| 2026-04-28 20:35 | -43.59987 | 172.28818 | 38238 ft | 439 kts | 241° |
| 2026-04-28 20:35 | -43.63044 | 172.21519 | 38240 ft | 440 kts | 241° |
| 2026-04-28 20:36 | -43.66108 | 172.14198 | 38234 ft | 440 kts | 241° |
| 2026-04-28 20:36 | -43.69171 | 172.06884 | 38236 ft | 440 kts | 241° |
| 2026-04-28 20:37 | -43.72200 | 171.99608 | 38233 ft | 439 kts | 241° |
| 2026-04-28 20:37 | -43.75234 | 171.92278 | 38238 ft | 439 kts | 242° |
| 2026-04-28 20:38 | -43.78265 | 171.84965 | 38231 ft | 438 kts | 242° |
| 2026-04-28 20:38 | -43.81282 | 171.77648 | 38234 ft | 438 kts | 242° |
| 2026-04-28 20:39 | -43.84306 | 171.70321 | 38225 ft | 438 kts | 241° |
| 2026-04-28 20:39 | -43.87411 | 171.63049 | 38232 ft | 438 kts | 240° |
| 2026-04-28 20:40 | -43.90518 | 171.55811 | 38229 ft | 437 kts | 241° |
| 2026-04-28 20:40 | -43.93585 | 171.48592 | 38219 ft | 436 kts | 241° |
| 2026-04-28 20:41 | -43.96674 | 171.41337 | 38226 ft | 436 kts | 241° |
| 2026-04-28 20:41 | -43.99764 | 171.34097 | 38219 ft | 436 kts | 241° |
| 2026-04-28 20:42 | -44.02838 | 171.26830 | 38234 ft | 436 kts | 241° |
| 2026-04-28 20:42 | -44.05879 | 171.19546 | 38232 ft | 435 kts | 242° |
| 2026-04-28 20:43 | -44.08908 | 171.12263 | 38224 ft | 435 kts | 242° |
| 2026-04-28 20:43 | -44.11953 | 171.05007 | 38229 ft | 434 kts | 242° |
| 2026-04-28 20:44 | -44.14996 | 170.97744 | 38231 ft | 434 kts | 242° |
| 2026-04-28 20:44 | -44.18018 | 170.90456 | 38232 ft | 434 kts | 242° |
| 2026-04-28 20:45 | -44.21020 | 170.83223 | 38235 ft | 434 kts | 242° |
| 2026-04-28 20:45 | -44.24037 | 170.75926 | 38245 ft | 434 kts | 242° |
| 2026-04-28 20:46 | -44.27043 | 170.68643 | 38238 ft | 432 kts | 242° |
| 2026-04-28 20:46 | -44.30044 | 170.61367 | 38234 ft | 432 kts | 243° |
| 2026-04-28 20:47 | -44.33038 | 170.54074 | 38241 ft | 432 kts | 243° |
| 2026-04-28 20:47 | -44.36038 | 170.46781 | 38239 ft | 430 kts | 243° |
| 2026-04-28 20:47 | -44.37516 | 170.43163 | 37936 ft | 429 kts | 243° |
| 2026-04-28 20:48 | -44.39004 | 170.39533 | 37659 ft | 431 kts | 243° |
| 2026-04-28 20:48 | -44.40496 | 170.35891 | 37383 ft | 432 kts | 243° |
| 2026-04-28 20:48 | -44.41978 | 170.32246 | 37088 ft | 430 kts | 243° |
| 2026-04-28 20:48 | -44.42958 | 170.29840 | 36812 ft | 428 kts | 243° |
| 2026-04-28 20:49 | -44.44905 | 170.25056 | 36174 ft | 425 kts | 243° |
| 2026-04-28 20:49 | -44.46361 | 170.21465 | 35673 ft | 423 kts | 243° |
| 2026-04-28 20:49 | -44.47808 | 170.17891 | 35001 ft | 422 kts | 243° |
| 2026-04-28 20:49 | -44.49275 | 170.14241 | 34126 ft | 434 kts | 243° |
| 2026-04-28 20:50 | -44.50281 | 170.11728 | 33491 ft | 439 kts | 243° |
| 2026-04-28 20:50 | -44.51768 | 170.07997 | 32632 ft | 437 kts | 243° |
| 2026-04-28 20:50 | -44.53240 | 170.04293 | 31850 ft | 433 kts | 244° |
| 2026-04-28 20:50 | -44.54693 | 170.00629 | 31131 ft | 429 kts | 244° |
| 2026-04-28 20:51 | -44.56115 | 169.97028 | 30514 ft | 426 kts | 244° |
| 2026-04-28 20:51 | -44.57545 | 169.93402 | 29841 ft | 423 kts | 244° |
| 2026-04-28 20:51 | -44.58965 | 169.89792 | 29151 ft | 420 kts | 244° |
| 2026-04-28 20:51 | -44.60364 | 169.86225 | 28484 ft | 416 kts | 244° |
| 2026-04-28 20:52 | -44.61752 | 169.82679 | 27844 ft | 412 kts | 244° |
| 2026-04-28 20:52 | -44.63119 | 169.79181 | 27052 ft | 405 kts | 244° |
| 2026-04-28 20:52 | -44.64462 | 169.75739 | 26228 ft | 398 kts | 244° |
| 2026-04-28 20:52 | -44.65784 | 169.72345 | 25558 ft | 394 kts | 245° |
| 2026-04-28 20:53 | -44.68486 | 169.65763 | 24744 ft | 380 kts | 241° |
| 2026-04-28 20:53 | -44.69939 | 169.62650 | 24506 ft | 382 kts | 240° |
| 2026-04-28 20:53 | -44.71328 | 169.59474 | 24125 ft | 380 kts | 244° |
| 2026-04-28 20:54 | -44.72598 | 169.56236 | 23524 ft | 377 kts | 245° |
| 2026-04-28 20:54 | -44.73855 | 169.52989 | 22678 ft | 379 kts | 245° |
| 2026-04-28 20:54 | -44.75122 | 169.49728 | 21809 ft | 381 kts | 244° |
| 2026-04-28 20:54 | -44.76402 | 169.46451 | 20956 ft | 383 kts | 244° |
| 2026-04-28 20:55 | -44.77690 | 169.43170 | 20122 ft | 385 kts | 244° |
| 2026-04-28 20:55 | -44.78984 | 169.39868 | 19280 ft | 382 kts | 244° |
| 2026-04-28 20:55 | -44.80253 | 169.36622 | 18460 ft | 375 kts | 244° |
| 2026-04-28 20:55 | -44.81446 | 169.33402 | 17547 ft | 366 kts | 250° |
| 2026-04-28 20:56 | -44.82155 | 169.30062 | 16701 ft | 356 kts | 263° |
| 2026-04-28 20:56 | -44.82140 | 169.26653 | 15852 ft | 344 kts | 282° |
| 2026-04-28 20:56 | -44.81330 | 169.23540 | 15037 ft | 337 kts | 300° |
| 2026-04-28 20:56 | -44.79815 | 169.21054 | 14230 ft | 336 kts | 319° |
| 2026-04-28 20:57 | -44.77765 | 169.19477 | 13462 ft | 337 kts | 338° |
| 2026-04-28 20:57 | -44.75464 | 169.19040 | 12930 ft | 334 kts | 358° |
| 2026-04-28 20:57 | -44.73218 | 169.19807 | 12479 ft | 332 kts | 19° |
| 2026-04-28 20:57 | -44.71246 | 169.21435 | 12068 ft | 325 kts | 28° |
| 2026-04-28 20:58 | -44.69427 | 169.23243 | 11660 ft | 315 kts | 30° |
| 2026-04-28 20:58 | -44.67692 | 169.25061 | 11269 ft | 311 kts | 35° |
| 2026-04-28 20:58 | -44.66303 | 169.27427 | 10909 ft | 318 kts | 52° |
| 2026-04-28 20:58 | -44.65442 | 169.30307 | 10526 ft | 325 kts | 74° |
| 2026-04-28 20:59 | -44.65412 | 169.33445 | 10176 ft | 330 kts | 99° |
| 2026-04-28 20:59 | -44.66256 | 169.36398 | 10023 ft | 325 kts | 124° |
| 2026-04-28 20:59 | -44.67798 | 169.38681 | 10011 ft | 322 kts | 150° |
| 2026-04-28 20:59 | -44.69785 | 169.39968 | 10022 ft | 310 kts | 174° |
| 2026-04-28 21:00 | -44.71863 | 169.40181 | 10049 ft | 294 kts | 194° |
| 2026-04-28 21:00 | -44.73784 | 169.39435 | 10041 ft | 281 kts | 213° |
| 2026-04-28 21:00 | -44.75366 | 169.37935 | 10052 ft | 269 kts | 231° |
| 2026-04-28 21:00 | -44.76506 | 169.35912 | 10057 ft | 261 kts | 245° |
| 2026-04-28 21:01 | -44.77381 | 169.33687 | 10051 ft | 260 kts | 248° |
| 2026-04-28 21:01 | -44.78242 | 169.31444 | 10037 ft | 264 kts | 246° |
| 2026-04-28 21:01 | -44.79134 | 169.29160 | 10044 ft | 268 kts | 246° |
| 2026-04-28 21:01 | -44.80044 | 169.26866 | 10034 ft | 264 kts | 246° |
| 2026-04-28 21:02 | -44.80922 | 169.24685 | 10016 ft | 249 kts | 246° |
| 2026-04-28 21:02 | -44.81757 | 169.22609 | 9921 ft | 238 kts | 246° |
| 2026-04-28 21:02 | -44.82563 | 169.20605 | 9792 ft | 233 kts | 246° |
| 2026-04-28 21:02 | -44.83361 | 169.18620 | 9661 ft | 232 kts | 246° |
| 2026-04-28 21:03 | -44.84154 | 169.16644 | 9531 ft | 232 kts | 246° |
| 2026-04-28 21:03 | -44.84807 | 169.14593 | 9393 ft | 228 kts | 257° |
| 2026-04-28 21:03 | -44.85417 | 169.12517 | 9259 ft | 231 kts | 247° |
| 2026-04-28 21:03 | -44.86328 | 169.10623 | 9126 ft | 236 kts | 236° |
| 2026-04-28 21:04 | -44.87513 | 169.08997 | 8961 ft | 240 kts | 225° |
| 2026-04-28 21:04 | -44.88929 | 169.07713 | 8659 ft | 245 kts | 215° |
| 2026-04-28 21:04 | -44.90528 | 169.06816 | 8324 ft | 250 kts | 203° |
| 2026-04-28 21:04 | -44.92260 | 169.06364 | 7968 ft | 257 kts | 191° |
| 2026-04-28 21:05 | -44.94066 | 169.06381 | 7611 ft | 262 kts | 182° |
| 2026-04-28 21:05 | -44.95869 | 169.06585 | 7362 ft | 257 kts | 181° |
| 2026-04-28 21:05 | -44.97612 | 169.06785 | 7162 ft | 247 kts | 182° |
| 2026-04-28 21:05 | -44.99289 | 169.06857 | 6823 ft | 239 kts | 195° |
| 2026-04-28 21:06 | -45.00826 | 169.06193 | 6443 ft | 226 kts | 214° |
| 2026-04-28 21:06 | -45.02076 | 169.04947 | 6025 ft | 216 kts | 230° |
| 2026-04-28 21:06 | -45.02992 | 169.03301 | 5593 ft | 213 kts | 245° |
| 2026-04-28 21:06 | -45.03558 | 169.01364 | 5251 ft | 213 kts | 259° |
| 2026-04-28 21:07 | -45.03775 | 168.99305 | 4949 ft | 211 kts | 272° |
| 2026-04-28 21:07 | -45.03616 | 168.97253 | 4636 ft | 210 kts | 284° |
| 2026-04-28 21:07 | -45.03142 | 168.95324 | 4367 ft | 202 kts | 297° |
| 2026-04-28 21:07 | -45.02441 | 168.93681 | 4178 ft | 191 kts | 304° |
| 2026-04-28 21:08 | -45.01719 | 168.92158 | 3892 ft | 180 kts | 304° |
| 2026-04-28 21:08 | -45.01073 | 168.90735 | 3589 ft | 164 kts | 303° |
| 2026-04-28 21:08 | -45.00467 | 168.89376 | 3263 ft | 163 kts | 304° |
| 2026-04-28 21:08 | -45.00025 | 168.87897 | 3029 ft | 166 kts | 284° |
| 2026-04-28 21:09 | -44.99929 | 168.86286 | 2810 ft | 160 kts | 271° |
| 2026-04-28 21:09 | -45.00059 | 168.84841 | 2524 ft | 138 kts | 261° |
| 2026-04-28 21:09 | -45.00314 | 168.83554 | 2200 ft | 134 kts | 257° |
| 2026-04-28 21:09 | -45.00567 | 168.82269 | 2148 ft | 137 kts | 258° |
| 2026-04-28 21:10 | -45.00811 | 168.80962 | 2024 ft | 139 kts | 258° |
| 2026-04-28 21:10 | -45.01039 | 168.79648 | 1873 ft | 138 kts | 258° |
| 2026-04-28 21:10 | -45.01263 | 168.78311 | 1614 ft | 140 kts | 259° |
| 2026-04-28 21:10 | -45.01471 | 168.76982 | 1393 ft | 137 kts | 261° |
| 2026-04-28 21:11 | -45.01675 | 168.75664 | 1207 ft | 134 kts | 261° |
| 2026-04-28 21:11 | -45.01838 | 168.74596 | 1173 ft | 74 kts | 257° |
| 2026-04-28 21:11 | -45.01909 | 168.74154 | 1173 ft | 15 kts | 249° |
| 2026-04-28 21:11 | -45.01962 | 168.74107 | 1169 ft | 9 kts | 202° |
| 2026-04-28 21:12 | -45.02023 | 168.74069 | 1169 ft | 10 kts | 203° |
| 2026-04-28 21:12 | -45.02081 | 168.74043 | 1168 ft | 8 kts | 206° |
| 2026-04-28 21:12 | -45.02117 | 168.74018 | 1166 ft | 1 kts | 207° |
| 2026-04-28 21:12 | -45.02120 | 168.74016 | 1167 ft | 0 kts | 207° |